Time;durP1;ratioP1;P1;durP2;ratioP2;P2;SDS_P1;SDS_P2;PMS_P1;PMS_P2;Temp;Humidity;BMP_temperature;BMP_pressure;BME280_temperature;BME280_humidity;BME280_pressure;Samples;Min_cycle;Max_cycle;Signal;HPM_P1;HPM_P2
2022/09/10 00:01:41;;;;;;;63.67;50.88;;;;;;;18.76;85.26;97450.44;10411741;28;20079;-56
2022/09/10 00:06:41;;;;;;;52.50;40.13;;;;;;;18.75;85.52;97431.19;10396932;28;20043;-56
2022/09/10 00:11:40;;;;;;;37.30;29.80;;;;;;;18.71;85.39;97432.22;10413476;28;20478;-56
2022/09/10 00:16:39;;;;;;;38.20;29.83;;;;;;;18.43;87.35;97435.03;10413719;28;20087;-56
2022/09/10 00:21:38;;;;;;;41.10;33.33;;;;;;;18.28;87.99;97438.25;10413911;28;20085;-56
2022/09/10 00:26:38;;;;;;;34.58;28.73;;;;;;;18.15;88.13;97411.56;10414274;28;20101;-56
2022/09/10 00:31:38;;;;;;;29.90;24.27;;;;;;;18.19;88.01;97437.66;10412814;28;20068;-56
2022/09/10 00:36:40;;;;;;;29.63;24.92;;;;;;;18.23;87.23;97441.03;10410637;28;20083;-56
2022/09/10 00:41:42;;;;;;;29.17;25.38;;;;;;;18.25;87.26;97441.00;10413782;28;20071;-56
2022/09/10 00:46:49;;;;;;;31.45;25.08;;;;;;;18.28;87.00;97436.47;10414494;28;20067;-56
2022/09/10 00:51:51;;;;;;;27.65;22.75;;;;;;;18.22;87.41;97441.09;10413329;28;20088;-56
2022/09/10 00:56:53;;;;;;;30.85;24.30;;;;;;;18.19;87.69;97437.66;10413196;28;20499;-56
2022/09/10 01:01:54;;;;;;;29.50;23.85;;;;;;;18.11;88.17;97431.00;10413925;28;20491;-56
2022/09/10 01:06:53;;;;;;;32.13;24.50;;;;;;;18.08;88.32;97431.97;10410223;28;20468;-56
2022/09/10 01:12:07;;;;;;;26.50;22.40;;;;;;;18.06;88.49;97430.28;10413267;28;20064;-56
2022/09/10 01:17:31;;;;;;;28.83;24.55;;;;;;;18.12;88.38;97427.44;10413293;28;20464;-56
2022/09/10 01:23:03;;;;;;;27.92;22.55;;;;;;;18.15;88.34;97420.31;10412916;28;20060;-56
2022/09/10 01:28:09;;;;;;;29.55;23.30;;;;;;;18.24;88.05;97408.59;10415093;28;20068;-56
2022/09/10 01:33:23;;;;;;;26.38;22.70;;;;;;;18.26;88.20;97405.91;10419873;28;20098;-56
2022/09/10 01:38:30;;;;;;;26.85;22.30;;;;;;;18.23;87.90;97391.13;10417702;28;20056;-56
2022/09/10 01:43:29;;;;;;;26.45;19.70;;;;;;;18.26;87.83;97400.66;10420280;28;20083;-56
2022/09/10 01:49:03;;;;;;;23.45;18.85;;;;;;;18.35;87.28;97408.19;10419801;28;20091;-56
2022/09/10 01:54:29;;;;;;;21.70;18.98;;;;;;;18.09;87.16;97354.88;10400074;28;20079;-56
2022/09/10 01:59:49;;;;;;;22.80;19.10;;;;;;;18.43;87.08;97382.47;10394711;28;20076;-56
2022/09/10 02:04:51;;;;;;;20.77;16.92;;;;;;;18.50;86.53;97383.97;10418837;28;20526;-56
2022/09/10 02:09:51;;;;;;;25.70;21.40;;;;;;;18.51;86.23;97383.06;10416678;28;20132;-56
2022/09/10 02:14:54;;;;;;;26.88;22.58;;;;;;;18.33;86.84;97400.38;10418450;28;20076;-56
2022/09/10 02:19:54;;;;;;;31.25;24.05;;;;;;;18.26;86.82;97403.28;10418556;28;20075;-56
2022/09/10 02:24:53;;;;;;;27.58;22.63;;;;;;;18.25;86.63;97412.09;10418340;28;20079;-56
2022/09/10 02:29:54;;;;;;;29.83;26.60;;;;;;;18.13;86.98;97419.50;10417274;28;20029;-56
2022/09/10 02:34:53;;;;;;;31.85;26.98;;;;;;;18.13;87.11;97418.66;10417768;28;20076;-56
2022/09/10 02:39:52;;;;;;;31.23;27.88;;;;;;;18.12;86.99;97417.78;10414868;28;20039;-56
2022/09/10 02:44:52;;;;;;;27.33;24.00;;;;;;;18.22;86.96;97410.41;10417355;28;20496;-56
2022/09/10 02:49:51;;;;;;;25.40;22.70;;;;;;;18.31;86.69;97402.19;10417317;28;20080;-56
2022/09/10 02:54:51;;;;;;;25.98;22.75;;;;;;;18.33;86.11;97408.25;10415959;28;20407;-56
2022/09/10 02:59:50;;;;;;;26.92;21.33;;;;;;;18.38;86.00;97422.06;10416870;28;20525;-56
2022/09/10 03:04:48;;;;;;;23.63;19.20;;;;;;;18.42;85.72;97433.31;10416949;28;20106;-57
2022/09/10 03:09:48;;;;;;;23.45;18.58;;;;;;;18.52;85.57;97444.34;10416048;28;20111;-56
2022/09/10 03:14:49;;;;;;;22.35;17.10;;;;;;;18.55;86.02;97434.59;10415873;28;20484;-57
2022/09/10 03:19:48;;;;;;;29.02;21.65;;;;;;;18.57;87.59;97424.88;10416433;28;20520;-57
2022/09/10 03:24:47;;;;;;;27.67;21.80;;;;;;;18.54;88.72;97426.75;10416217;28;20658;-57
2022/09/10 03:29:46;;;;;;;26.92;21.80;;;;;;;18.55;89.72;97428.44;10414815;28;20048;-57
2022/09/10 03:34:44;;;;;;;26.40;22.45;;;;;;;18.48;90.56;97417.34;10413908;28;20040;-56
2022/09/10 03:39:43;;;;;;;26.50;20.83;;;;;;;18.52;90.71;97403.16;10415028;28;20127;-57
2022/09/10 03:44:42;;;;;;;27.00;19.42;;;;;;;18.57;90.27;97406.47;10414756;28;20036;-57
2022/09/10 03:49:42;;;;;;;20.13;14.73;;;;;;;18.71;89.27;97400.69;10414592;28;20423;-57
2022/09/10 03:54:41;;;;;;;18.23;13.48;;;;;;;18.88;88.64;97400.03;10414324;28;20076;-56
2022/09/10 03:59:40;;;;;;;15.10;12.30;;;;;;;19.01;88.30;97405.66;10414833;28;20043;-56
2022/09/10 04:04:39;;;;;;;12.98;11.38;;;;;;;19.09;87.22;97414.09;10414590;28;20474;-57
2022/09/10 04:09:38;;;;;;;15.38;10.32;;;;;;;19.08;87.14;97390.47;10414104;28;20068;-57
2022/09/10 04:14:37;;;;;;;12.00;10.07;;;;;;;19.19;86.32;97401.41;10412325;28;20120;-57
2022/09/10 04:19:36;;;;;;;15.18;12.07;;;;;;;19.18;85.65;97410.22;10414513;28;20016;-57
2022/09/10 04:24:35;;;;;;;17.20;14.02;;;;;;;19.33;85.77;97404.31;10413703;28;20068;-57
2022/09/10 04:29:34;;;;;;;18.77;13.50;;;;;;;19.38;85.80;97409.41;10409757;28;20044;-57
2022/09/10 04:34:33;;;;;;;15.32;13.02;;;;;;;19.42;85.25;97406.56;10410602;28;20028;-57
2022/09/10 04:39:32;;;;;;;18.63;13.50;;;;;;;19.52;85.40;97406.19;10410872;28;20033;-57
2022/09/10 04:44:31;;;;;;;16.67;12.38;;;;;;;19.57;85.18;97398.97;10411986;28;20075;-57
2022/09/10 04:49:30;;;;;;;23.23;12.68;;;;;;;19.55;84.98;97411.31;10413983;28;20041;-55
2022/09/10 04:54:29;;;;;;;18.35;11.95;;;;;;;19.58;84.50;97412.09;10413891;28;20048;-55
2022/09/10 04:59:28;;;;;;;17.30;11.90;;;;;;;19.71;84.04;97417.66;10415689;28;20064;-54
2022/09/10 05:04:27;;;;;;;17.08;11.25;;;;;;;19.81;84.13;97413.72;10420835;28;20068;-55
2022/09/10 05:09:32;;;;;;;17.52;12.52;;;;;;;19.88;83.58;97409.03;10421396;28;20039;-55
2022/09/10 05:14:32;;;;;;;16.08;12.70;;;;;;;19.96;83.92;97396.38;10420414;28;20495;-55
2022/09/10 05:19:31;;;;;;;21.85;13.43;;;;;;;20.00;83.92;97408.50;10419576;28;20503;-55
2022/09/10 05:24:33;;;;;;;20.60;13.65;;;;;;;19.97;83.56;97415.66;10420749;28;20483;-57
2022/09/10 05:29:32;;;;;;;14.98;12.30;;;;;;;20.06;83.35;97417.91;10420149;28;20072;-55
2022/09/10 05:34:30;;;;;;;17.05;12.32;;;;;;;20.22;82.09;97429.47;10395753;28;20063;-57
2022/09/10 05:39:29;;;;;;;18.13;13.18;;;;;;;20.44;81.88;97447.81;10401746;28;20127;-55
2022/09/10 05:44:28;;;;;;;17.63;12.05;;;;;;;20.47;80.64;97465.28;10419582;28;20104;-55
2022/09/10 05:49:29;;;;;;;22.98;16.15;;;;;;;20.23;82.44;97454.88;10419613;28;20131;-55
2022/09/10 05:54:28;;;;;;;19.70;14.90;;;;;;;20.51;81.67;97451.03;10419412;28;20499;-55
2022/09/10 05:59:28;;;;;;;20.10;14.23;;;;;;;20.67;81.59;97436.19;10418880;28;20075;-56
2022/09/10 06:04:27;;;;;;;19.05;14.40;;;;;;;20.64;80.59;97436.34;10419491;28;20118;-56
2022/09/10 06:09:26;;;;;;;14.52;12.70;;;;;;;20.64;79.96;97430.22;10418621;28;20111;-56
2022/09/10 06:14:25;;;;;;;18.85;12.75;;;;;;;20.73;79.35;97416.63;10417760;28;20035;-55
2022/09/10 06:19:24;;;;;;;19.02;13.90;;;;;;;20.65;79.69;97405.56;10417080;28;20040;-56
2022/09/10 06:24:24;;;;;;;18.73;13.00;;;;;;;20.81;79.02;97410.97;10415333;28;20023;-55
2022/09/10 06:29:23;;;;;;;20.05;14.45;;;;;;;20.77;76.46;97430.50;10403117;28;20075;-56
2022/09/10 06:34:22;;;;;;;17.90;13.90;;;;;;;20.89;77.80;97430.78;10414602;28;20103;-55
2022/09/10 06:39:21;;;;;;;17.40;13.20;;;;;;;21.10;77.72;97434.19;10412116;28;20104;-55
2022/09/10 06:44:21;;;;;;;16.42;13.55;;;;;;;21.38;77.99;97421.41;10412046;28;20087;-55
2022/09/10 06:49:20;;;;;;;15.93;13.75;;;;;;;21.62;77.98;97408.78;10400114;28;20072;-56
2022/09/10 06:54:19;;;;;;;17.27;13.35;;;;;;;21.89;77.38;97412.63;10374337;28;20087;-56
2022/09/10 06:59:18;;;;;;;19.38;13.77;;;;;;;21.98;75.48;97411.28;10389070;28;20029;-56
2022/09/10 07:04:17;;;;;;;21.45;13.23;;;;;;;22.19;75.24;97419.91;10414172;28;20162;-57
2022/09/10 07:09:16;;;;;;;19.17;11.77;;;;;;;22.46;72.91;97409.66;10414209;28;20455;-57
2022/09/10 07:14:15;;;;;;;21.10;13.23;;;;;;;22.58;70.07;97424.00;10388579;28;20060;-56
2022/09/10 07:19:16;;;;;;;17.55;11.80;;;;;;;22.83;69.39;97404.97;10406616;28;20033;-56
2022/09/10 07:24:15;;;;;;;13.95;10.77;;;;;;;23.19;69.08;97407.34;10382044;28;20068;-57
2022/09/10 07:29:14;;;;;;;17.23;12.82;;;;;;;23.43;68.44;97412.16;10383398;28;20060;-57
2022/09/10 07:34:13;;;;;;;15.05;12.07;;;;;;;23.81;68.06;97431.09;10398883;28;20036;-57
2022/09/10 07:39:12;;;;;;;14.55;11.05;;;;;;;24.20;67.28;97432.31;10415680;28;20024;-57
2022/09/10 07:44:11;;;;;;;14.95;10.50;;;;;;;24.54;65.12;97424.06;10414782;28;20024;-57
2022/09/10 07:49:10;;;;;;;13.15;9.20;;;;;;;24.89;62.43;97419.19;10413573;28;20051;-54
2022/09/10 07:54:09;;;;;;;17.98;9.95;;;;;;;25.19;60.99;97419.00;10414905;28;20071;-55
2022/09/10 07:59:08;;;;;;;15.00;10.48;;;;;;;25.33;58.56;97418.94;10414418;28;20099;-55
2022/09/10 08:04:08;;;;;;;15.70;10.02;;;;;;;25.44;57.31;97420.06;10414901;28;20470;-55
2022/09/10 08:09:07;;;;;;;12.63;8.10;;;;;;;25.44;55.38;97415.59;10414133;28;20077;-55
2022/09/10 08:14:06;;;;;;;14.40;8.85;;;;;;;25.65;54.23;97410.66;10413933;28;20519;-55
2022/09/10 08:19:05;;;;;;;14.65;8.85;;;;;;;25.94;54.70;97407.81;10414267;28;20415;-55
2022/09/10 08:24:04;;;;;;;10.55;8.40;;;;;;;26.27;53.58;97415.28;10413443;28;20121;-55
2022/09/10 08:29:04;;;;;;;13.77;9.32;;;;;;;26.57;52.64;97408.75;10414235;28;20074;-56
2022/09/10 08:34:03;;;;;;;10.10;7.85;;;;;;;26.75;51.51;97399.44;10415392;28;20491;-56
2022/09/10 08:39:02;;;;;;;14.63;9.55;;;;;;;27.09;50.79;97409.47;10421579;28;20373;-56
2022/09/10 08:44:27;;;;;;;11.90;7.85;;;;;;;27.35;48.32;97412.84;10422254;28;20032;-56
2022/09/10 08:49:47;;;;;;;11.60;7.18;;;;;;;27.31;48.19;97393.59;10422225;28;20543;-56
2022/09/10 08:54:53;;;;;;;10.60;7.50;;;;;;;27.31;46.83;97398.94;10421925;28;20056;-56
2022/09/10 08:59:55;;;;;;;12.10;7.55;;;;;;;27.12;47.16;97379.94;10421784;28;20067;-56
2022/09/10 09:04:58;;;;;;;12.95;7.75;;;;;;;27.24;47.05;97378.16;10421489;28;20067;-56
2022/09/10 09:09:57;;;;;;;12.85;7.45;;;;;;;27.31;46.72;97377.63;10419790;28;20082;-56
2022/09/10 09:15:02;;;;;;;10.77;7.07;;;;;;;27.53;46.18;97373.34;10419810;28;20076;-56
2022/09/10 09:20:21;;;;;;;10.93;7.25;;;;;;;27.84;46.69;97358.50;10420470;28;20078;-56
2022/09/10 09:25:22;;;;;;;16.92;11.25;;;;;;;28.11;45.94;97358.22;10420781;28;20090;-56
2022/09/10 09:30:36;;;;;;;14.20;8.63;;;;;;;27.92;46.35;97336.59;10419695;28;20067;-56
2022/09/10 09:35:46;;;;;;;14.23;7.45;;;;;;;27.95;45.15;97339.84;10420202;28;20534;-55
2022/09/10 09:40:51;;;;;;;11.27;6.82;;;;;;;27.91;45.50;97321.53;10418587;28;20072;-56
2022/09/10 09:45:52;;;;;;;11.85;6.82;;;;;;;28.07;45.25;97318.53;10420138;28;20526;-56
2022/09/10 09:50:54;;;;;;;12.93;6.13;;;;;;;28.40;43.40;97310.50;10419682;28;20099;-56
2022/09/10 09:55:59;;;;;;;12.73;7.50;;;;;;;28.69;43.93;97299.34;10420011;28;20537;-56
2022/09/10 10:01:04;;;;;;;12.25;6.70;;;;;;;28.90;43.25;97299.38;10419107;28;20052;-56
2022/09/10 10:06:09;;;;;;;13.30;6.80;;;;;;;29.09;42.34;97285.34;10419856;28;20060;-56
2022/09/10 10:11:14;;;;;;;12.48;6.63;;;;;;;29.07;42.84;97272.09;10419018;28;20078;-56
2022/09/10 10:16:16;;;;;;;10.18;6.65;;;;;;;29.18;42.56;97262.31;10419180;28;20500;-56
2022/09/10 10:21:15;;;;;;;10.32;6.40;;;;;;;29.28;41.89;97256.09;10418731;28;20464;-56
2022/09/10 10:26:19;;;;;;;11.63;6.80;;;;;;;29.35;41.78;97253.75;10418109;28;20592;-56
2022/09/10 10:31:19;;;;;;;14.23;7.10;;;;;;;29.64;40.66;97245.88;10418507;28;20483;-56
2022/09/10 10:36:27;;;;;;;9.75;6.18;;;;;;;30.10;40.25;97259.78;10417909;28;20075;-56
2022/09/10 10:41:32;;;;;;;12.48;6.93;;;;;;;30.43;40.66;97255.09;10417094;28;20068;-56
2022/09/10 10:46:57;;;;;;;13.60;6.25;;;;;;;30.47;39.63;97260.03;10417197;28;20072;-56
2022/09/10 10:52:25;;;;;;;9.52;5.55;;;;;;;30.33;38.36;97245.19;10416954;28;20083;-56
2022/09/10 10:58:05;;;;;;;11.50;6.15;;;;;;;30.25;39.74;97250.34;10416453;28;20452;-55
2022/09/10 11:03:14;;;;;;;11.52;5.90;;;;;;;30.17;39.18;97231.47;10414375;28;20083;-56
2022/09/10 11:08:34;;;;;;;12.48;6.20;;;;;;;29.87;39.28;97225.19;10416820;28;20059;-56
2022/09/10 11:13:48;;;;;;;12.50;6.10;;;;;;;29.85;40.21;97223.63;10416996;28;20067;-55
2022/09/10 11:19:14;;;;;;;11.57;6.40;;;;;;;29.99;39.01;97212.56;10416284;28;20076;-56
2022/09/10 11:24:23;;;;;;;15.93;6.43;;;;;;;29.86;39.20;97244.91;10416369;28;20064;-56
2022/09/10 11:29:52;;;;;;;12.75;7.82;;;;;;;29.81;39.98;97231.06;10415361;28;20097;-56
2022/09/10 11:34:58;;;;;;;12.95;7.65;;;;;;;29.49;41.35;97217.81;10407428;28;20075;-55
2022/09/10 11:40:04;;;;;;;15.52;9.40;;;;;;;29.29;41.99;97214.19;10415687;28;20441;-56
2022/09/10 11:45:17;;;;;;;15.35;8.43;;;;;;;29.15;43.29;97230.53;10415615;28;20074;-56
2022/09/10 11:50:28;;;;;;;15.05;8.52;;;;;;;28.88;42.58;97255.94;10414529;28;20084;-56
2022/09/10 11:55:59;;;;;;;18.67;8.73;;;;;;;27.99;50.89;97279.13;10413746;28;20532;-56
2022/09/10 12:01:22;;;;;;;16.40;10.18;;;;;;;25.08;65.18;97286.09;10414981;28;20452;-56
2022/09/10 12:07:09;;;;;;;23.70;13.27;;;;;;;23.31;77.66;97317.56;10414849;28;20156;-57
2022/09/10 12:12:42;;;;;;;18.55;12.75;;;;;;;22.24;83.62;97329.78;10414089;28;20451;-56
2022/09/10 12:17:45;;;;;;;19.25;12.77;;;;;;;21.91;87.12;97317.44;10380763;28;20099;-57
2022/09/10 12:22:47;;;;;;;22.02;12.25;;;;;;;21.93;88.67;97305.84;10414648;28;20079;-57
2022/09/10 12:27:56;;;;;;;22.27;13.57;;;;;;;22.06;91.42;97306.09;10414642;28;20079;-56
2022/09/10 12:32:59;;;;;;;14.02;8.27;;;;;;;22.12;90.95;97316.31;10414111;28;20164;-56
2022/09/10 12:38:35;;;;;;;10.77;7.40;;;;;;;22.11;90.07;97303.19;10413808;28;20080;-56
2022/09/10 12:43:40;;;;;;;12.00;6.18;;;;;;;22.02;88.32;97277.28;10413500;28;20075;-56
2022/09/10 12:48:43;;;;;;;12.73;7.18;;;;;;;21.94;88.25;97290.84;10414046;28;20087;-56
2022/09/10 12:54:19;;;;;;;11.32;6.45;;;;;;;21.91;87.11;97283.94;10413518;28;20095;-56
2022/09/10 12:59:21;;;;;;;8.70;6.10;;;;;;;21.88;87.69;97270.91;10413881;28;20059;-58
2022/09/10 13:04:33;;;;;;;10.63;6.88;;;;;;;21.89;87.64;97259.41;10414149;28;20060;-56
2022/09/10 13:09:36;;;;;;;8.75;5.38;;;;;;;22.13;85.24;97259.91;10413749;28;20067;-57
2022/09/10 13:14:44;;;;;;;9.95;5.88;;;;;;;22.23;84.86;97238.25;10413299;28;20444;-56
2022/09/10 13:19:43;;;;;;;10.65;6.45;;;;;;;22.50;85.68;97249.88;10414124;28;20494;-56
2022/09/10 13:25:26;;;;;;;15.50;6.43;;;;;;;23.11;84.23;97248.09;10420735;28;20589;-56
2022/09/10 13:30:27;;;;;;;11.18;6.10;;;;;;;23.64;82.97;97251.13;10409759;28;20072;-56
2022/09/10 13:36:04;;;;;;;8.65;6.55;;;;;;;24.00;80.84;97232.06;10421360;28;20056;-56
2022/09/10 13:41:21;;;;;;;13.80;8.23;;;;;;;24.31;79.89;97227.47;10420043;28;20083;-56
2022/09/10 13:46:30;;;;;;;14.45;8.52;;;;;;;24.65;79.85;97225.25;10420846;28;20488;-56
2022/09/10 13:51:32;;;;;;;;;;;;;;;25.11;79.05;97233.66;10420129;28;20072;-56
2022/09/10 13:56:32;;;;;;;14.77;9.20;;;;;;;25.58;77.22;97241.13;10419850;28;20407;-56
2022/09/10 14:01:52;;;;;;;12.88;10.30;;;;;;;25.49;75.17;97245.25;10419116;28;20072;-56
2022/09/10 14:06:56;;;;;;;17.10;10.15;;;;;;;25.16;74.70;97235.16;10419027;28;20068;-56
2022/09/10 14:11:58;;;;;;;12.43;8.77;;;;;;;25.12;73.09;97229.19;10418763;28;20091;-56
2022/09/10 14:17:07;;;;;;;18.50;10.43;;;;;;;25.14;74.16;97240.56;10418946;28;20083;-56
2022/09/10 14:22:14;;;;;;;17.38;10.82;;;;;;;24.93;75.48;97244.66;10419249;28;20063;-56
2022/09/10 14:27:15;;;;;;;13.13;8.68;;;;;;;24.75;76.26;97268.78;10417988;28;20071;-56
2022/09/10 14:32:24;;;;;;;15.05;8.50;;;;;;;24.84;76.29;97254.91;10416753;28;20079;-56
2022/09/10 14:37:35;;;;;;;;;;;;;;;24.96;74.36;97255.06;10418990;28;20056;-56
2022/09/10 14:42:34;;;;;;;14.52;8.23;;;;;;;25.06;73.09;97256.19;10418581;28;19974;-56
2022/09/10 14:47:35;;;;;;;10.30;6.93;;;;;;;24.90;71.82;97257.19;10417397;28;20075;-56
2022/09/10 14:52:35;;;;;;;9.38;7.28;;;;;;;25.02;71.54;97260.81;10417272;28;20083;-56
2022/09/10 14:57:34;;;;;;;11.43;7.25;;;;;;;25.02;70.63;97244.06;10417667;28;20079;-56
2022/09/10 15:02:33;;;;;;;9.38;6.43;;;;;;;24.99;69.12;97242.47;10416764;28;20135;-56
2022/09/10 15:07:32;;;;;;;8.55;6.57;;;;;;;25.19;69.43;97251.72;10416703;28;20051;-57
2022/09/10 15:12:31;;;;;;;9.70;6.43;;;;;;;25.47;68.54;97255.13;10415651;28;20040;-56
2022/09/10 15:17:30;;;;;;;13.27;7.00;;;;;;;25.55;65.18;97249.31;10413784;28;20063;-56
2022/09/10 15:22:30;;;;;;;10.05;7.88;;;;;;;25.57;66.10;97266.84;10415930;28;20025;-56
2022/09/10 15:27:29;;;;;;;16.30;9.55;;;;;;;25.17;66.31;97282.81;10414964;28;20067;-57
2022/09/10 15:32:29;;;;;;;15.80;10.60;;;;;;;24.55;69.74;97287.84;10414338;28;20029;-57
2022/09/10 15:37:28;;;;;;;18.65;14.30;;;;;;;24.00;71.50;97284.22;10415246;28;20075;-57
2022/09/10 15:42:27;;;;;;;18.55;14.00;;;;;;;23.74;72.96;97301.75;10415701;28;20024;-57
2022/09/10 15:47:26;;;;;;;17.35;13.90;;;;;;;23.48;73.82;97284.78;10414514;28;20111;-55
2022/09/10 15:52:25;;;;;;;16.75;14.93;;;;;;;23.29;76.63;97312.34;10414191;28;20091;-56
2022/09/10 15:57:25;;;;;;;16.75;12.77;;;;;;;23.11;77.24;97302.84;10415003;28;20024;-56
2022/09/10 16:02:23;;;;;;;16.50;11.80;;;;;;;22.94;77.47;97303.84;10414179;28;20052;-56
2022/09/10 16:07:22;;;;;;;18.17;12.27;;;;;;;22.65;78.48;97295.75;10414277;28;20025;-56
2022/09/10 16:12:21;;;;;;;19.48;13.35;;;;;;;22.57;78.44;97293.53;10414884;28;20040;-57
2022/09/10 16:17:20;;;;;;;17.27;13.88;;;;;;;22.66;78.31;97310.69;10413088;28;20037;-56
2022/09/10 16:22:19;;;;;;;19.48;14.95;;;;;;;22.66;78.70;97302.75;10413228;28;20125;-57
2022/09/10 16:27:18;;;;;;;17.10;14.00;;;;;;;22.65;78.48;97306.34;10414463;28;20041;-56
2022/09/10 16:32:17;;;;;;;17.90;13.48;;;;;;;22.50;79.28;97326.53;10413350;28;20083;-56
2022/09/10 16:37:17;;;;;;;18.85;14.82;;;;;;;22.51;79.63;97303.63;10413556;28;20028;-56
2022/09/10 16:42:16;;;;;;;18.17;14.13;;;;;;;22.49;79.84;97303.69;10414428;28;20530;-57
2022/09/10 16:47:15;;;;;;;18.65;14.13;;;;;;;22.41;80.88;97324.41;10412104;28;20072;-57
2022/09/10 16:52:14;;;;;;;21.70;16.02;;;;;;;22.29;81.31;97331.25;10412420;28;20148;-56
2022/09/10 16:57:13;;;;;;;22.08;15.30;;;;;;;22.23;81.88;97328.94;10417262;28;20049;-57
2022/09/10 17:02:12;;;;;;;18.70;14.70;;;;;;;22.20;81.87;97336.19;10420393;28;20028;-57
2022/09/10 17:07:11;;;;;;;23.83;15.80;;;;;;;22.12;82.58;97341.88;10421064;28;20479;-57
2022/09/10 17:12:10;;;;;;;19.98;14.98;;;;;;;22.02;83.08;97338.91;10421876;28;20445;-57
2022/09/10 17:17:09;;;;;;;18.73;16.13;;;;;;;22.04;83.26;97341.44;10419504;28;20117;-57
2022/09/10 17:22:09;;;;;;;22.13;17.25;;;;;;;22.05;83.41;97345.81;10421715;28;20055;-57
2022/09/10 17:27:10;;;;;;;21.05;17.90;;;;;;;21.93;86.02;97344.63;10420353;28;20076;-57
2022/09/10 17:32:09;;;;;;;27.17;19.27;;;;;;;21.75;86.82;97351.75;10418912;28;20083;-57
2022/09/10 17:37:08;;;;;;;23.15;18.52;;;;;;;21.66;87.75;97358.34;10419584;28;20033;-56
2022/09/10 17:42:07;;;;;;;24.58;18.63;;;;;;;21.63;87.62;97376.16;10420197;28;20033;-56
2022/09/10 17:47:06;;;;;;;23.52;18.92;;;;;;;21.60;87.98;97384.25;10419077;28;20075;-56
2022/09/10 17:52:05;;;;;;;25.48;19.00;;;;;;;21.58;88.52;97401.94;10419805;28;20052;-56
2022/09/10 17:57:04;;;;;;;27.65;20.65;;;;;;;21.50;89.10;97400.56;10418941;28;20110;-56
2022/09/10 18:02:03;;;;;;;24.83;21.70;;;;;;;21.45;89.90;97407.84;10418982;28;20064;-56
2022/09/10 18:07:02;;;;;;;29.35;21.70;;;;;;;21.33;90.81;97413.72;10434760;28;20035;-57
2022/09/10 18:12:02;;;;;;;23.98;20.70;;;;;;;21.25;91.47;97418.56;10461139;28;20028;-58
2022/09/10 18:17:00;;;;;;;29.83;21.15;;;;;;;21.19;91.79;97426.72;10418573;28;20451;-57
2022/09/10 18:22:00;;;;;;;22.15;19.80;;;;;;;21.20;91.66;97405.53;10418597;28;20469;-59
2022/09/10 18:27:03;;;;;;;29.02;21.13;;;;;;;21.20;91.76;97407.34;10418442;28;20451;-56
2022/09/10 18:32:02;;;;;;;31.85;21.90;;;;;;;21.19;91.81;97409.09;10417590;28;20475;-56
2022/09/10 18:37:01;;;;;;;28.30;20.60;;;;;;;21.20;92.27;97416.09;10418401;28;20080;-56
2022/09/10 18:42:01;;;;;;;32.85;22.30;;;;;;;21.22;92.40;97431.88;10418251;28;20074;-57
2022/09/10 18:47:00;;;;;;;28.80;21.73;;;;;;;21.24;92.68;97414.19;10413822;28;20079;-56
2022/09/10 18:51:59;;;;;;;29.17;24.20;;;;;;;21.16;93.02;97405.78;10417031;28;20090;-56
2022/09/10 18:56:58;;;;;;;33.22;27.10;;;;;;;21.14;92.97;97430.44;10417341;28;20039;-57
2022/09/10 19:01:57;;;;;;;29.00;24.80;;;;;;;21.11;92.99;97422.69;10415652;28;20044;-57
2022/09/10 19:06:57;;;;;;;28.00;23.17;;;;;;;21.06;93.23;97422.06;10414871;28;20036;-57
2022/09/10 19:11:57;;;;;;;26.33;22.88;;;;;;;21.03;93.61;97421.34;10416051;28;20064;-56
2022/09/10 19:16:58;;;;;;;25.85;23.05;;;;;;;20.96;93.68;97415.53;10397967;28;20103;-56
2022/09/10 19:22:02;;;;;;;31.05;24.58;;;;;;;20.91;93.93;97404.31;10374716;28;20076;-57
2022/09/10 19:27:01;;;;;;;30.90;24.42;;;;;;;20.83;94.50;97406.47;10374924;28;20056;-57
2022/09/10 19:32:00;;;;;;;30.95;24.98;;;;;;;20.69;94.82;97409.78;10411629;28;20064;-56
2022/09/10 19:36:59;;;;;;;34.22;25.80;;;;;;;20.67;95.08;97430.94;10414592;28;20494;-56
2022/09/10 19:41:58;;;;;;;29.20;24.63;;;;;;;20.59;95.88;97430.44;10397615;28;20472;-56
2022/09/10 19:46:57;;;;;;;26.67;22.00;;;;;;;20.34;98.92;97445.66;10414554;28;20139;-56
2022/09/10 19:51:56;;;;;;;30.65;23.38;;;;;;;20.20;99.92;97447.09;10414680;28;20053;-57
2022/09/10 19:56:55;;;;;;;29.70;25.42;;;;;;;20.14;100.00;97444.78;10415098;28;20551;-56
2022/09/10 20:01:54;;;;;;;30.42;25.48;;;;;;;20.11;100.00;97442.25;10414404;28;20537;-57
2022/09/10 20:06:53;;;;;;;30.38;25.65;;;;;;;20.12;100.00;97456.28;10414179;28;20024;-57
2022/09/10 20:11:52;;;;;;;39.08;28.77;;;;;;;20.12;100.00;97448.38;10414344;28;20099;-57
2022/09/10 20:16:53;;;;;;;45.42;31.48;;;;;;;20.07;100.00;97453.84;10411140;28;20136;-57
2022/09/10 20:21:52;;;;;;;39.97;30.55;;;;;;;20.07;100.00;97467.00;10413791;28;20072;-57
2022/09/10 20:26:51;;;;;;;38.90;29.42;;;;;;;20.10;100.00;97456.34;10414067;28;20038;-57
2022/09/10 20:31:51;;;;;;;29.88;26.63;;;;;;;19.99;100.00;97450.69;10413665;28;20107;-57
2022/09/10 20:36:50;;;;;;;36.97;27.33;;;;;;;19.91;100.00;97463.31;10413524;28;20076;-57
2022/09/10 20:41:49;;;;;;;37.88;29.05;;;;;;;19.82;100.00;97460.19;10413944;28;20072;-57
2022/09/10 20:46:49;;;;;;;36.20;27.98;;;;;;;19.79;100.00;97456.81;10413056;28;20040;-57
2022/09/10 20:51:47;;;;;;;34.35;28.25;;;;;;;19.73;100.00;97447.41;10413755;28;20080;-57
2022/09/10 20:56:47;;;;;;;34.53;25.98;;;;;;;19.68;100.00;97456.44;10413893;28;20039;-57
2022/09/10 21:01:49;;;;;;;35.30;26.48;;;;;;;19.62;100.00;97463.66;10412717;28;20538;-57
2022/09/10 21:06:48;;;;;;;33.47;23.63;;;;;;;19.59;99.94;97473.47;10412532;28;20071;-57
2022/09/10 21:11:48;;;;;;;29.33;23.23;;;;;;;19.53;100.00;97492.09;10413860;28;20032;-57
2022/09/10 21:16:47;;;;;;;30.50;22.38;;;;;;;19.45;100.00;97485.38;10412362;28;20507;-57
2022/09/10 21:21:47;;;;;;;32.15;24.02;;;;;;;19.42;100.00;97477.63;10413143;28;20083;-57
2022/09/10 21:26:47;;;;;;;31.42;23.52;;;;;;;19.39;100.00;97484.78;10412886;28;20076;-57
2022/09/10 21:31:49;;;;;;;32.55;25.50;;;;;;;19.37;100.00;97481.34;10412572;28;20064;-55
2022/09/10 21:36:48;;;;;;;27.77;23.25;;;;;;;19.35;100.00;97476.16;10412665;28;20357;-56
2022/09/10 21:41:48;;;;;;;33.38;24.15;;;;;;;19.40;100.00;97475.97;10415278;28;20086;-56
2022/09/10 21:46:48;;;;;;;36.42;25.83;;;;;;;19.38;100.00;97468.13;10419066;28;20067;-56
2022/09/10 21:51:48;;;;;;;35.05;27.95;;;;;;;19.44;100.00;97472.31;10419638;28;20083;-57
2022/09/10 21:56:50;;;;;;;33.85;26.90;;;;;;;19.45;100.00;97484.53;10418968;28;20755;-57
2022/09/10 22:01:49;;;;;;;31.80;24.90;;;;;;;19.45;100.00;97459.06;10401116;28;20076;-57
2022/09/10 22:06:49;;;;;;;29.75;23.73;;;;;;;19.53;100.00;97458.75;10418968;28;20064;-57
2022/09/10 22:11:52;;;;;;;32.45;23.50;;;;;;;19.56;100.00;97460.44;10418990;28;20075;-57
2022/09/10 22:16:52;;;;;;;30.92;23.00;;;;;;;19.60;99.92;97472.53;10418000;28;20079;-57
2022/09/10 22:21:56;;;;;;;30.20;23.77;;;;;;;19.42;100.00;97477.63;10417444;28;20072;-57
2022/09/10 22:26:55;;;;;;;31.17;24.13;;;;;;;19.26;100.00;97473.91;10400372;28;20547;-57
2022/09/10 22:31:54;;;;;;;29.23;23.05;;;;;;;19.19;100.00;97451.41;10417345;28;20487;-57
2022/09/10 22:36:53;;;;;;;27.27;21.25;;;;;;;19.21;100.00;97460.94;10418067;28;20072;-57
2022/09/10 22:41:52;;;;;;;27.27;20.92;;;;;;;19.20;99.48;97463.63;10418157;28;20304;-57
2022/09/10 22:46:51;;;;;;;30.20;20.38;;;;;;;19.10;98.57;97472.81;10416834;28;20090;-57
2022/09/10 22:51:50;;;;;;;24.42;19.67;;;;;;;18.96;99.36;97457.56;10417438;28;20389;-57
2022/09/10 22:56:49;;;;;;;30.08;22.83;;;;;;;18.98;99.25;97448.69;10417059;28;20028;-57
2022/09/10 23:01:48;;;;;;;27.17;21.55;;;;;;;19.05;99.13;97461.63;10417324;28;20032;-57